Date,TemperatureHighF,TemperatureAvgF,TemperatureLowF,DewpointHighF,DewpointAvgF,DewpointLowF,HumidityHigh,HumidityAvg,HumidityLow,PressureMaxIn,PressureMinIn,WindSpeedMaxMPH,WindSpeedAvgMPH,GustSpeedMaxMPH,PrecipitationSumIn
2013-5-1,56.5,49.5,39.0,37.2,3.5,-48.1,50,24,1,30.29,29.88,0,0,0,0.00
2013-5-2,39.0,33.4,31.6,-6.0,-52.2,-58.9,15,2,1,30.35,30.22,0,0,0,0.00
2013-5-3,35.1,32.6,30.6,-56.8,-58.3,-59.6,1,1,1,30.27,29.95,0,0,0,0.00
2013-5-4,64.0,47.3,34.9,-38.8,-49.2,-56.9,1,1,1,30.03,29.93,0,0,0,0.00
2013-5-5,69.3,54.6,41.9,50.5,-20.9,-52.6,52,13,1,30.07,29.99,0,0,0,0.00
2013-5-6,73.4,60.5,48.0,52.7,4.3,-48.7,54,24,1,30.07,29.99,0,0,0,0.00
2013-5-7,77.2,65.7,51.4,52.4,34.1,-34.5,56,33,2,30.05,29.96,0,0,0,0.00
2013-5-8,77.7,65.2,54.9,53.5,30.3,-41.5,57,40,1,30.01,29.93,0,0,0,0.00
2013-5-9,61.9,57.7,55.4,-40.2,-42.7,-44.1,1,1,1,29.94,29.81,0,0,0,0.00
2013-5-10,55.4,55.4,55.4,-44.1,-44.1,-44.1,1,1,1,30.00,29.89,0,0,0,0.00
2013-5-11,55.4,55.4,55.4,-44.1,-44.1,-44.1,1,1,1,30.11,29.87,0,0,0,0.00
2013-5-12,67.3,53.5,44.8,45.2,-7.5,-44.1,48,20,1,30.24,30.09,18,4,21,0.00
2013-5-13,69.1,55.1,37.4,46.9,35.4,24.1,70,49,31,30.14,29.79,21,8,21,0.00
2013-5-14,95.7,74.5,52.3,59.9,51.9,44.1,75,50,25,29.79,29.50,30,11,30,0.00
2013-5-15,77.0,67.4,55.0,49.0,45.7,41.5,72,47,31,29.91,29.65,27,6,30,0.00
2013-5-16,82.8,70.0,54.7,53.1,47.3,42.4,71,46,29,29.94,29.83,17,4,27,0.01
2013-5-17,78.1,66.2,53.2,62.5,54.6,43.3,74,67,51,29.99,29.86,19,9,20,0.31
2013-5-18,82.2,70.1,57.2,64.1,57.7,48.3,74,66,50,30.00,29.82,22,10,22,0.00
2013-5-19,81.7,71.4,62.6,69.1,60.0,48.7,72,67,60,29.86,29.56,36,16,36,0.56
2013-5-20,75.4,69.7,59.5,62.7,58.5,47.5,75,68,61,29.69,29.57,23,10,23,0.23
2013-5-21,65.7,62.0,59.4,56.8,51.6,45.9,75,69,61,29.67,29.54,18,8,18,0.07
2013-5-22,66.2,60.0,55.0,57.0,50.1,42.3,75,70,61,29.81,29.63,25,6,25,0.81
2013-5-23,62.4,56.1,50.2,52.3,44.7,40.3,77,66,47,30.27,29.81,30,12,30,0.33
2013-5-24,65.3,55.4,43.7,49.1,42.6,36.6,77,64,40,30.38,30.21,20,8,20,0.22
2013-5-25,53.6,51.6,48.7,46.4,43.6,40.7,77,74,69,30.29,30.21,29,12,30,0.20
2013-5-26,54.1,50.1,45.7,44.2,40.7,34.4,78,70,63,30.22,30.01,41,9,41,0.82
2013-5-27,60.3,56.5,53.4,47.6,44.2,41.1,65,63,62,30.03,29.78,20,8,41,0.07
2013-5-28,73.2,63.3,54.0,64.8,51.8,42.1,75,66,59,29.79,29.66,15,4,21,0.05
2013-5-29,77.4,65.9,59.5,68.1,54.2,46.7,76,66,59,29.83,29.72,21,9,21,2.08
2013-5-30,74.7,68.4,62.2,65.6,58.7,50.0,76,71,61,29.76,29.55,30,15,30,0.01
2013-5-31,75.4,67.2,60.6,64.7,56.2,47.5,76,68,61,29.70,29.61,26,12,30,0.00